Terminal Aerodrome Forecast
Issued by NWS

Home | Current Version | Previous Version | Text Only | Print | Product List | Glossary On
Versions: 1 2 3 4 5 6 7 8 9 10 11 12 13 14 15 16 17 18 19 20 21 22 23 24 25 26 27 28 29 30 31 32 33 34 35 36 37 38 39 40 41 42 43 44 45 46 47 48 49 50
891
FTUS45 KBOU 282300 AAD
TAFAPA
TAF AMD
KAPA 282300Z 2823/2918 02014G22KT 2SM -SN SCT008 OVC015
      TEMPO 2823/2901 1 1/2SM -TSSN OVC007CB
     FM290100 03016G24KT 1 1/2SM -SN BR BKN006 OVC012
      TEMPO 2901/2905 1/2SM SN FZFG OVC003
     FM290500 36016G24KT 1SM -SN BR OVC005
     FM291400 36012KT 2SM -SN BR OVC008=

USA.gov is the U.S. government's official web portal to all federal, state and local government web resources and services.